Time;durP1;ratioP1;P1;durP2;ratioP2;P2;SDS_P1;SDS_P2;PMS_P1;PMS_P2;Temp;Humidity;BMP_temperature;BMP_pressure;BME280_temperature;BME280_humidity;BME280_pressure;Samples;Min_cycle;Max_cycle;Signal;HPM_P1;HPM_P2
2022/09/30 03:02:58;;;;;;;0.93;0.80;;;12.10;81.60;;;;;;5104459;22;20486;-69
2022/09/30 03:05:26;;;;;;;0.90;0.90;;;12.10;81.70;;;;;;5055782;28;20423;-70
2022/09/30 03:07:53;;;;;;;1.00;1.00;;;12.10;81.70;;;;;;5055240;28;20442;-70
2022/09/30 03:10:20;;;;;;;0.90;0.90;;;12.10;81.60;;;;;;5054769;28;20952;-70
2022/09/30 03:13:04;;;;;;;1.07;0.97;;;12.10;81.70;;;;;;5034848;28;20853;-70
2022/09/30 03:15:42;;;;;;;1.10;1.10;;;12.00;81.80;;;;;;5036120;28;20981;-69
2022/09/30 03:18:23;;;;;;;0.90;0.90;;;12.00;81.80;;;;;;5034974;28;20857;-70
2022/09/30 03:21:04;;;;;;;1.00;1.00;;;12.00;81.90;;;;;;5034963;28;20470;-70
2022/09/30 03:23:43;;;;;;;0.93;0.93;;;12.00;81.80;;;;;;5034985;28;20436;-70
2022/09/30 03:26:18;;;;;;;0.80;0.80;;;12.00;81.70;;;;;;5034963;28;20439;-71
2022/09/30 03:28:51;;;;;;;0.80;0.80;;;12.00;81.70;;;;;;5034828;28;20435;-71
2022/09/30 03:31:26;;;;;;;0.90;0.90;;;12.00;81.60;;;;;;5034418;28;20467;-71
2022/09/30 03:34:00;;;;;;;0.93;0.93;;;12.00;81.60;;;;;;5035462;28;20751;-71
2022/09/30 03:36:34;;;;;;;0.90;0.90;;;12.00;81.70;;;;;;5034514;28;20436;-71
2022/09/30 03:39:06;;;;;;;1.47;0.97;;;12.00;81.80;;;;;;5034185;28;20428;-71
2022/09/30 03:41:39;;;;;;;0.80;0.80;;;12.00;81.90;;;;;;5035033;28;20464;-71
2022/09/30 03:44:12;;;;;;;0.90;0.90;;;11.90;81.90;;;;;;5034230;28;20946;-70
2022/09/30 03:46:42;;;;;;;0.90;0.90;;;11.80;82.40;;;;;;5034362;28;20442;-71
2022/09/30 03:49:14;;;;;;;0.90;0.90;;;11.80;82.40;;;;;;5034476;28;20427;-70
2022/09/30 03:51:41;;;;;;;1.00;1.00;;;11.80;82.50;;;;;;5034521;28;20873;-70
2022/09/30 03:54:09;;;;;;;0.90;0.90;;;11.80;82.50;;;;;;5034147;28;20454;-71
2022/09/30 03:56:42;;;;;;;1.03;1.03;;;11.80;82.60;;;;;;5034234;28;20479;-71
2022/09/30 03:59:11;;;;;;;0.70;0.70;;;11.80;82.60;;;;;;5035033;28;20490;-70
2022/09/30 04:01:38;;;;;;;0.93;0.93;;;11.90;82.50;;;;;;5033765;28;20483;-71
2022/09/30 04:04:05;;;;;;;0.90;0.90;;;11.90;82.40;;;;;;5034096;28;20455;-70
2022/09/30 04:06:33;;;;;;;0.93;0.93;;;11.90;82.30;;;;;;5034006;28;20454;-71
2022/09/30 04:09:00;;;;;;;1.10;1.00;;;11.80;82.50;;;;;;5033924;28;20448;-71
2022/09/30 04:11:26;;;;;;;0.93;0.93;;;11.90;82.40;;;;;;5033888;28;20475;-71
2022/09/30 04:13:53;;;;;;;0.90;0.90;;;11.90;82.20;;;;;;5033868;28;20497;-70
2022/09/30 04:16:20;;;;;;;1.00;1.00;;;11.90;82.20;;;;;;5033396;28;20479;-70
2022/09/30 04:18:46;;;;;;;0.97;0.97;;;11.80;82.20;;;;;;5033747;28;20451;-72
2022/09/30 04:21:14;;;;;;;1.13;1.03;;;11.80;82.30;;;;;;5033801;28;20878;-71
2022/09/30 04:23:43;;;;;;;0.90;0.90;;;11.90;82.30;;;;;;5033446;28;20966;-72
2022/09/30 04:26:12;;;;;;;1.27;0.80;;;11.80;82.40;;;;;;5033698;28;20443;-71
2022/09/30 04:28:39;;;;;;;0.80;0.80;;;11.80;82.40;;;;;;5033724;28;20451;-71
2022/09/30 04:31:06;;;;;;;0.90;0.90;;;11.70;82.50;;;;;;5033593;28;20464;-72
2022/09/30 04:33:33;;;;;;;0.90;0.90;;;11.70;82.50;;;;;;5033596;28;20443;-72
2022/09/30 04:36:01;;;;;;;1.17;1.10;;;11.70;82.30;;;;;;5033462;28;20998;-71
2022/09/30 04:38:28;;;;;;;0.90;0.90;;;11.70;82.20;;;;;;5033600;28;20455;-71
2022/09/30 04:40:57;;;;;;;1.10;0.90;;;11.60;82.30;;;;;;5033497;28;20598;-72
2022/09/30 04:43:25;;;;;;;1.00;1.00;;;11.60;82.30;;;;;;5033486;28;20546;-71
2022/09/30 04:45:53;;;;;;;0.90;0.90;;;11.60;82.20;;;;;;5033442;28;20444;-72
2022/09/30 04:48:20;;;;;;;1.20;1.10;;;11.60;82.00;;;;;;5032995;28;20452;-72
2022/09/30 04:50:47;;;;;;;2.00;1.00;;;11.60;81.80;;;;;;5033393;28;20475;-72
2022/09/30 04:53:14;;;;;;;1.03;1.03;;;11.50;81.70;;;;;;5033381;28;20450;-72
2022/09/30 04:55:41;;;;;;;1.07;0.90;;;11.50;81.60;;;;;;5033358;28;20526;-72
2022/09/30 04:58:09;;;;;;;0.70;0.70;;;11.40;81.80;;;;;;5033368;28;20444;-72
2022/09/30 05:00:36;;;;;;;0.80;0.80;;;11.40;81.70;;;;;;5033304;28;20459;-71
2022/09/30 05:03:03;;;;;;;0.70;0.70;;;11.30;81.50;;;;;;5033330;28;20440;-72
2022/09/30 05:05:30;;;;;;;0.90;0.90;;;11.30;81.50;;;;;;5033432;28;20451;-71
2022/09/30 05:08:00;;;;;;;0.97;0.90;;;11.30;81.70;;;;;;5034433;28;20450;-71
2022/09/30 05:10:27;;;;;;;0.80;0.80;;;11.30;81.80;;;;;;5033338;28;20475;-72
2022/09/30 05:12:53;;;;;;;1.20;1.10;;;11.30;81.80;;;;;;5033221;28;20443;-71
2022/09/30 05:15:21;;;;;;;0.90;0.90;;;11.20;82.10;;;;;;5032814;28;21017;-71
2022/09/30 05:17:49;;;;;;;1.10;1.10;;;11.20;82.10;;;;;;5033083;28;20455;-72
2022/09/30 05:20:16;;;;;;;0.87;0.87;;;11.20;82.20;;;;;;5033156;28;20451;-72
2022/09/30 05:22:43;;;;;;;1.00;0.93;;;11.30;82.20;;;;;;5033072;28;20467;-72
2022/09/30 05:25:09;;;;;;;1.00;1.00;;;11.30;82.10;;;;;;5033042;28;20444;-72
2022/09/30 05:27:36;;;;;;;1.00;0.90;;;11.30;82.10;;;;;;5033037;28;20443;-72
2022/09/30 05:30:05;;;;;;;0.90;0.90;;;11.40;82.10;;;;;;5032959;28;20451;-72
2022/09/30 05:32:33;;;;;;;0.80;0.80;;;11.40;82.20;;;;;;5032931;28;20472;-72
2022/09/30 05:35:02;;;;;;;1.00;0.90;;;11.40;82.20;;;;;;5032875;28;20482;-72
2022/09/30 05:37:29;;;;;;;2.40;0.93;;;11.50;82.00;;;;;;5032925;28;20458;-72
2022/09/30 05:39:55;;;;;;;1.80;1.03;;;11.50;82.00;;;;;;5032882;28;20451;-72
2022/09/30 05:42:22;;;;;;;0.90;0.90;;;11.50;82.00;;;;;;5032539;28;20478;-72
2022/09/30 05:44:49;;;;;;;1.00;1.00;;;11.60;82.00;;;;;;5032842;28;20475;-72
2022/09/30 05:47:16;;;;;;;1.07;0.97;;;11.60;82.00;;;;;;5032576;28;20930;-72
2022/09/30 05:49:45;;;;;;;0.73;0.73;;;11.70;81.90;;;;;;5032541;28;20939;-72
2022/09/30 05:52:13;;;;;;;0.90;0.90;;;11.80;82.00;;;;;;5032792;28;20889;-72
2022/09/30 05:54:41;;;;;;;0.80;0.80;;;11.80;82.00;;;;;;5032725;28;20517;-72
2022/09/30 05:57:08;;;;;;;1.13;1.03;;;11.90;81.80;;;;;;5032439;28;20953;-72
2022/09/30 05:59:36;;;;;;;0.80;0.80;;;12.00;81.40;;;;;;5032721;28;20455;-72
2022/09/30 06:02:03;;;;;;;0.83;0.83;;;11.90;81.40;;;;;;5035260;28;21064;-72
2022/09/30 06:04:30;;;;;;;0.87;0.87;;;11.80;81.80;;;;;;5036291;28;20454;-72
2022/09/30 06:06:58;;;;;;;1.10;1.00;;;11.40;82.60;;;;;;5036261;28;20443;-72
2022/09/30 06:09:25;;;;;;;1.13;0.87;;;11.30;83.50;;;;;;5036230;28;20454;-72
2022/09/30 06:11:57;;;;;;;0.87;0.87;;;11.20;84.10;;;;;;5036127;28;20474;-72
2022/09/30 06:14:24;;;;;;;0.90;0.90;;;11.40;84.70;;;;;;5036206;28;20475;-72
2022/09/30 06:16:51;;;;;;;1.10;1.10;;;11.80;84.00;;;;;;5035933;28;20483;-72
2022/09/30 06:19:18;;;;;;;1.07;1.07;;;12.60;82.80;;;;;;5035981;28;20493;-72
2022/09/30 06:21:45;;;;;;;0.90;0.90;;;13.90;79.80;;;;;;5035586;28;20978;-72
2022/09/30 06:24:13;;;;;;;1.00;1.00;;;15.30;74.60;;;;;;5035909;28;20800;-73
2022/09/30 06:26:41;;;;;;;0.80;0.80;;;16.70;70.50;;;;;;5035958;28;20451;-72
2022/09/30 06:29:08;;;;;;;0.70;0.70;;;17.80;67.10;;;;;;5035893;28;20483;-73
2022/09/30 06:31:34;;;;;;;1.00;1.00;;;18.60;64.30;;;;;;5035740;28;20479;-72
2022/09/30 06:34:01;;;;;;;0.90;0.90;;;19.40;62.50;;;;;;5035741;28;20505;-73
2022/09/30 06:36:28;;;;;;;0.80;0.80;;;19.70;61.60;;;;;;5035680;28;20575;-73
2022/09/30 06:38:55;;;;;;;0.90;0.90;;;20.00;59.40;;;;;;5035732;28;20447;-72
2022/09/30 06:41:27;;;;;;;0.90;0.90;;;20.30;59.60;;;;;;5035615;28;20468;-73
2022/09/30 06:43:54;;;;;;;1.47;1.30;;;20.80;58.00;;;;;;5035726;28;20432;-72
2022/09/30 06:46:22;;;;;;;0.93;0.93;;;20.80;57.40;;;;;;5035294;28;20942;-72
2022/09/30 06:48:51;;;;;;;0.90;0.90;;;20.00;58.40;;;;;;5035594;28;20543;-72
2022/09/30 06:51:19;;;;;;;0.93;0.93;;;19.20;60.40;;;;;;5035495;28;20613;-73
2022/09/30 06:53:46;;;;;;;1.30;1.20;;;18.70;62.00;;;;;;5035548;28;20546;-73
2022/09/30 06:56:13;;;;;;;1.10;1.10;;;18.50;63.10;;;;;;5035339;28;20494;-73
2022/09/30 06:58:41;;;;;;;1.00;1.00;;;18.20;64.20;;;;;;5035191;28;20943;-72
2022/09/30 07:01:10;;;;;;;1.20;1.10;;;18.00;63.80;;;;;;5035134;28;20997;-73
2022/09/30 07:03:36;;;;;;;1.03;1.03;;;17.70;65.20;;;;;;5035823;28;20786;-73
2022/09/30 07:06:05;;;;;;;1.00;1.00;;;17.30;66.30;;;;;;5035065;28;20440;-73
2022/09/30 07:08:34;;;;;;;1.17;1.17;;;17.20;66.50;;;;;;5035259;28;20451;-73
2022/09/30 07:11:04;;;;;;;1.20;1.10;;;16.80;67.40;;;;;;5034666;28;20934;-73
2022/09/30 07:13:31;;;;;;;1.40;1.30;;;16.80;67.70;;;;;;5035262;28;20483;-74
2022/09/30 07:16:00;;;;;;;1.20;1.20;;;16.60;68.20;;;;;;5034880;28;20467;-72
2022/09/30 07:18:27;;;;;;;1.10;1.10;;;15.90;69.30;;;;;;5034920;28;20809;-73
2022/09/30 07:20:55;;;;;;;1.30;1.30;;;15.50;71.20;;;;;;5034971;28;20479;-73
2022/09/30 07:23:24;;;;;;;1.40;1.30;;;15.00;72.10;;;;;;5035316;28;20452;-72
2022/09/30 07:25:55;;;;;;;1.40;1.30;;;14.70;73.60;;;;;;5034954;28;20452;-73
2022/09/30 07:28:22;;;;;;;1.00;1.00;;;14.60;74.10;;;;;;5034532;28;20891;-73
2022/09/30 07:30:49;;;;;;;1.43;1.27;;;14.50;74.60;;;;;;5034889;28;20468;-73
2022/09/30 07:33:17;;;;;;;1.43;1.33;;;14.40;75.30;;;;;;5034344;28;20938;-73
2022/09/30 07:35:54;;;;;;;1.10;1.10;;;14.40;75.60;;;;;;5035185;28;20490;-73
2022/09/30 07:38:23;;;;;;;1.53;1.37;;;14.00;76.50;;;;;;5035071;28;20439;-73
2022/09/30 07:40:54;;;;;;;1.70;1.60;;;13.70;77.40;;;;;;5035111;28;20475;-73
2022/09/30 07:43:21;;;;;;;1.23;1.13;;;13.40;78.70;;;;;;5034559;28;20443;-73
2022/09/30 07:45:50;;;;;;;1.20;1.20;;;13.30;79.10;;;;;;5034375;28;20455;-72
2022/09/30 07:51:02;;;;;;;1.30;1.30;;;13.00;79.50;;;;;;5034443;28;20447;-73
2022/09/30 07:53:29;;;;;;;1.50;1.40;;;12.60;81.20;;;;;;5034383;28;20506;-73
2022/09/30 07:55:55;;;;;;;1.87;1.77;;;12.50;82.60;;;;;;5034227;28;20483;-72
2022/09/30 07:58:22;;;;;;;1.67;1.57;;;12.70;82.10;;;;;;5034271;28;20450;-73
2022/09/30 08:00:50;;;;;;;1.20;1.20;;;12.70;82.10;;;;;;5033949;28;20838;-73
2022/09/30 08:03:18;;;;;;;1.40;1.40;;;12.50;81.80;;;;;;5034171;28;20436;-72
2022/09/30 08:05:47;;;;;;;1.50;1.40;;;12.40;82.20;;;;;;5034098;28;20446;-72
2022/09/30 08:08:14;;;;;;;1.43;1.33;;;12.50;82.50;;;;;;5033718;28;20880;-72
2022/09/30 08:10:41;;;;;;;1.40;1.30;;;12.40;82.80;;;;;;5033951;28;20509;-73
2022/09/30 08:13:08;;;;;;;1.70;1.70;;;12.50;83.30;;;;;;5033991;28;20452;-72
2022/09/30 08:15:35;;;;;;;1.50;1.40;;;12.60;83.00;;;;;;5033867;28;20510;-73
2022/09/30 08:18:02;;;;;;;1.93;1.83;;;12.80;82.50;;;;;;5033866;28;20447;-72
2022/09/30 08:20:30;;;;;;;1.83;1.73;;;12.70;82.10;;;;;;5033857;28;20455;-72
2022/09/30 08:22:58;;;;;;;1.80;1.70;;;12.60;82.60;;;;;;5033452;28;20447;-73
2022/09/30 08:25:25;;;;;;;2.00;1.90;;;12.60;82.40;;;;;;5033789;28;20848;-73
2022/09/30 08:27:52;;;;;;;2.10;2.00;;;12.70;82.40;;;;;;5033715;28;20452;-73
2022/09/30 08:30:18;;;;;;;1.77;1.67;;;12.60;82.60;;;;;;5033660;28;20451;-72
2022/09/30 08:32:45;;;;;;;2.03;1.93;;;12.60;82.80;;;;;;5033652;28;20463;-72
2022/09/30 08:35:12;;;;;;;1.90;1.80;;;12.60;83.30;;;;;;5034266;28;20448;-72
2022/09/30 08:37:40;;;;;;;1.80;1.70;;;12.90;82.60;;;;;;5033473;28;20487;-72
2022/09/30 08:40:10;;;;;;;1.73;1.63;;;12.90;82.20;;;;;;5033273;28;20861;-72
2022/09/30 08:42:54;;;;;;;1.97;1.87;;;12.90;82.00;;;;;;5033701;28;20468;-72
2022/09/30 08:45:31;;;;;;;2.00;1.90;;;13.10;81.80;;;;;;5033956;28;20432;-73
2022/09/30 08:48:05;;;;;;;1.77;1.67;;;13.30;80.60;;;;;;5033475;28;20454;-72
2022/09/30 08:50:40;;;;;;;1.80;1.70;;;13.40;80.30;;;;;;5033625;28;20485;-72
2022/09/30 08:53:13;;;;;;;2.07;1.97;;;13.60;79.40;;;;;;5033278;28;20910;-73
2022/09/30 08:55:42;;;;;;;1.57;1.47;;;13.80;79.20;;;;;;5033297;28;20510;-73
2022/09/30 08:58:18;;;;;;;1.40;1.40;;;13.80;79.40;;;;;;5033463;28;20467;-73
2022/09/30 09:00:45;;;;;;;1.40;1.40;;;14.10;78.50;;;;;;5032992;28;20505;-73
2022/09/30 09:03:14;;;;;;;1.80;1.70;;;14.50;77.60;;;;;;5033281;28;20486;-73
2022/09/30 09:05:50;;;;;;;1.50;1.50;;;14.70;77.20;;;;;;5033381;28;20550;-73
2022/09/30 09:08:29;;;;;;;1.20;1.20;;;14.90;75.30;;;;;;5033163;28;20438;-73
2022/09/30 09:11:02;;;;;;;1.37;1.37;;;15.10;73.00;;;;;;5033125;28;20471;-73
2022/09/30 09:13:42;;;;;;;1.30;1.20;;;15.10;73.10;;;;;;5032830;28;20447;-73
2022/09/30 09:16:15;;;;;;;1.30;1.30;;;14.50;73.50;;;;;;5034397;28;20499;-73
2022/09/30 09:18:50;;;;;;;1.43;1.33;;;14.30;76.40;;;;;;5033180;28;20436;-73
2022/09/30 09:21:46;;;;;;;1.50;1.50;;;14.30;76.40;;;;;;5032918;28;20565;-75
2022/09/30 09:24:18;;;;;;;1.20;1.20;;;14.40;76.60;;;;;;5024169;28;20824;-76
2022/09/30 09:26:45;;;;;;;1.00;1.00;;;14.60;75.80;;;;;;5033030;28;20430;-74
2022/09/30 09:29:25;;;;;;;1.37;1.27;;;14.50;75.10;;;;;;5032913;28;20444;-75
2022/09/30 09:31:53;;;;;;;1.00;1.00;;;14.40;74.00;;;;;;5032899;28;20582;-74
2022/09/30 09:34:23;;;;;;;1.20;1.10;;;14.20;75.00;;;;;;5032818;28;20443;-75
2022/09/30 09:37:05;;;;;;;1.10;1.10;;;14.40;75.10;;;;;;5035676;28;20506;-75
2022/09/30 09:40:02;;;;;;;1.20;1.20;;;14.40;73.60;;;;;;5036853;28;20764;-76
2022/09/30 09:42:41;;;;;;;1.13;1.13;;;14.60;73.90;;;;;;5036600;28;20465;-74
2022/09/30 09:45:15;;;;;;;1.10;1.10;;;14.70;73.80;;;;;;5036587;28;20493;-73
2022/09/30 09:47:46;;;;;;;1.13;1.13;;;14.80;74.10;;;;;;5037329;28;20500;-73
2022/09/30 09:50:18;;;;;;;1.20;1.20;;;14.80;73.40;;;;;;5036483;28;20431;-75
2022/09/30 09:52:57;;;;;;;1.10;1.10;;;14.80;73.80;;;;;;5036118;28;20986;-73
2022/09/30 09:55:25;;;;;;;0.90;0.90;;;15.00;73.10;;;;;;5036035;28;20934;-73
2022/09/30 09:58:06;;;;;;;1.10;1.00;;;15.10;72.40;;;;;;5036264;28;20494;-73
2022/09/30 10:03:20;;;;;;;1.00;1.00;;;15.10;72.00;;;;;;5037098;28;20407;-75
2022/09/30 10:06:01;;;;;;;1.00;1.00;;;15.30;71.50;;;;;;5036095;28;20539;-72
2022/09/30 10:08:30;;;;;;;0.90;0.90;;;15.30;72.30;;;;;;5036131;28;20427;-76
2022/09/30 10:11:02;;;;;;;0.93;0.93;;;15.20;70.70;;;;;;5037902;28;21042;-74
2022/09/30 10:13:31;;;;;;;1.10;1.00;;;15.20;70.00;;;;;;5036319;28;20513;-73
2022/09/30 10:16:00;;;;;;;0.80;0.80;;;15.20;69.50;;;;;;5035747;28;20811;-75
2022/09/30 10:18:29;;;;;;;0.77;0.77;;;15.20;68.90;;;;;;5035534;28;20819;-76
2022/09/30 10:21:00;;;;;;;0.80;0.80;;;14.80;68.20;;;;;;5037413;28;20467;-73
2022/09/30 10:23:29;;;;;;;0.70;0.70;;;14.80;68.90;;;;;;5035986;28;20456;-76
2022/09/30 10:26:00;;;;;;;0.90;0.70;;;15.00;69.30;;;;;;5035721;28;20444;-74
2022/09/30 10:28:29;;;;;;;0.67;0.67;;;15.00;65.90;;;;;;5035893;28;20451;-76
2022/09/30 10:31:01;;;;;;;0.90;0.90;;;14.90;66.10;;;;;;5035628;28;20550;-76
2022/09/30 10:33:32;;;;;;;0.63;0.63;;;15.10;66.40;;;;;;5035908;28;20435;-76
2022/09/30 10:36:07;;;;;;;0.80;0.80;;;15.00;65.10;;;;;;5036594;28;20458;-77
2022/09/30 10:38:35;;;;;;;0.77;0.77;;;15.10;66.30;;;;;;5035756;28;20970;-77
2022/09/30 10:41:05;;;;;;;0.73;0.70;;;15.20;67.10;;;;;;5035796;28;20848;-77
2022/09/30 10:43:39;;;;;;;0.70;0.70;;;15.30;66.10;;;;;;5035682;28;20451;-77
2022/09/30 10:46:07;;;;;;;2.20;0.90;;;15.30;66.90;;;;;;5035299;28;20458;-77
2022/09/30 10:48:37;;;;;;;0.67;0.67;;;15.30;69.00;;;;;;5035332;28;20842;-77
2022/09/30 10:51:06;;;;;;;0.70;0.70;;;15.40;66.30;;;;;;5035042;28;20467;-77
2022/09/30 10:53:35;;;;;;;0.80;0.80;;;15.30;66.80;;;;;;5036962;28;20455;-77
2022/09/30 10:56:04;;;;;;;0.70;0.70;;;15.20;67.70;;;;;;5035093;28;20947;-77
2022/09/30 10:58:46;;;;;;;0.90;0.90;;;15.40;67.50;;;;;;5037110;28;20535;-75
2022/09/30 11:01:21;;;;;;;0.70;0.70;;;15.60;67.50;;;;;;5040228;28;20919;-78
2022/09/30 11:03:56;;;;;;;0.70;0.70;;;15.90;66.40;;;;;;5039714;28;20939;-77
2022/09/30 11:06:24;;;;;;;0.90;0.70;;;15.90;64.40;;;;;;5038890;28;20522;-77
2022/09/30 11:08:57;;;;;;;0.77;0.77;;;15.90;65.00;;;;;;5041139;28;20509;-78
2022/09/30 11:11:29;;;;;;;0.90;0.90;;;16.10;65.00;;;;;;5040998;28;20479;-76
2022/09/30 11:14:01;;;;;;;0.70;0.70;;;16.40;64.40;;;;;;5038746;28;20412;-75
2022/09/30 11:16:35;;;;;;;0.80;0.80;;;16.70;62.90;;;;;;5038133;28;20458;-77
2022/09/30 11:19:09;;;;;;;0.70;0.70;;;16.40;61.30;;;;;;5037885;28;20436;-80
2022/09/30 11:21:43;;;;;;;0.70;0.70;;;16.60;63.60;;;;;;5043640;28;21016;-77
2022/09/30 11:24:25;;;;;;;0.77;0.77;;;16.20;61.20;;;;;;5049993;28;20435;-78
2022/09/30 11:27:03;;;;;;;0.70;0.70;;;15.80;62.20;;;;;;5046646;28;20428;-76
2022/09/30 11:29:43;;;;;;;0.80;0.80;;;15.80;62.90;;;;;;5042248;28;20467;-76
2022/09/30 11:32:22;;;;;;;0.70;0.70;;;16.00;63.90;;;;;;5038358;28;20468;-76
2022/09/30 11:34:59;;;;;;;0.60;0.60;;;16.00;62.40;;;;;;5042168;28;20455;-77
2022/09/30 11:37:40;;;;;;;0.70;0.67;;;16.00;63.30;;;;;;5041836;28;20467;-76
2022/09/30 11:40:29;;;;;;;0.70;0.70;;;16.00;62.00;;;;;;5039614;28;20911;-76
2022/09/30 11:43:05;;;;;;;0.70;0.70;;;16.00;62.20;;;;;;5038139;28;20436;-76
2022/09/30 11:45:41;;;;;;;0.70;0.70;;;16.20;62.00;;;;;;5040017;28;20485;-77
2022/09/30 11:48:26;;;;;;;0.60;0.60;;;16.30;62.10;;;;;;5038300;28;20416;-77
2022/09/30 11:51:02;;;;;;;0.70;0.70;;;16.80;61.90;;;;;;5034551;28;20472;-77
2022/09/30 11:53:40;;;;;;;0.60;0.60;;;17.10;61.40;;;;;;5034404;28;20435;-77
2022/09/30 11:56:19;;;;;;;0.67;0.67;;;17.10;60.20;;;;;;5034304;28;20431;-77
2022/09/30 11:58:51;;;;;;;0.70;0.70;;;17.40;60.40;;;;;;5033252;28;20471;-77
2022/09/30 12:01:27;;;;;;;0.80;0.80;;;17.50;61.50;;;;;;5034058;28;20487;-77
2022/09/30 12:04:00;;;;;;;0.70;0.70;;;17.50;60.30;;;;;;5034405;28;20434;-76
2022/09/30 12:06:33;;;;;;;0.70;0.70;;;17.90;59.30;;;;;;5034247;28;20428;-77
2022/09/30 12:09:07;;;;;;;0.80;0.80;;;18.30;59.30;;;;;;5034135;28;20431;-77
2022/09/30 12:11:42;;;;;;;0.70;0.70;;;18.50;59.30;;;;;;5034094;28;20506;-77
2022/09/30 12:14:16;;;;;;;0.70;0.70;;;18.60;57.60;;;;;;5035574;28;20537;-77
2022/09/30 12:16:47;;;;;;;0.70;0.70;;;18.50;57.30;;;;;;5035145;28;20443;-77
2022/09/30 12:19:16;;;;;;;1.00;0.80;;;18.50;58.20;;;;;;5034837;28;20502;-77
2022/09/30 12:21:52;;;;;;;0.90;0.80;;;18.70;58.10;;;;;;5034239;28;20471;-77
2022/09/30 12:24:25;;;;;;;0.67;0.67;;;18.70;56.50;;;;;;5034133;28;20435;-77
2022/09/30 12:26:53;;;;;;;0.70;0.60;;;19.00;56.00;;;;;;5039755;28;20922;-77
2022/09/30 12:32:50;;;;;;;1.00;0.70;;;19.40;55.20;;;;;;5039769;28;20451;-76
2022/09/30 12:35:42;;;;;;;0.70;0.60;;;19.30;55.90;;;;;;5036902;28;20451;-76
2022/09/30 12:38:24;;;;;;;1.23;0.70;;;19.60;54.50;;;;;;5034164;28;20468;-77
2022/09/30 12:41:10;;;;;;;0.60;0.60;;;19.80;54.80;;;;;;5036411;28;20474;-75
2022/09/30 12:44:23;;;;;;;0.60;0.60;;;19.90;53.60;;;;;;5034379;28;20519;-77
2022/09/30 12:47:06;;;;;;;0.67;0.63;;;19.80;52.40;;;;;;4998721;28;20536;-78
2022/09/30 12:49:36;;;;;;;0.60;0.60;;;20.00;51.70;;;;;;5035809;28;20432;-78
2022/09/30 12:52:06;;;;;;;0.60;0.50;;;20.10;51.00;;;;;;5035417;28;20463;-77
2022/09/30 12:54:36;;;;;;;0.70;0.67;;;19.90;51.40;;;;;;5034171;28;20454;-77
2022/09/30 12:57:08;;;;;;;1.10;0.70;;;20.00;51.50;;;;;;5032753;28;20900;-78
2022/09/30 12:59:37;;;;;;;0.60;0.57;;;19.90;51.10;;;;;;5033112;28;20436;-77
2022/09/30 13:02:07;;;;;;;0.70;0.70;;;19.80;52.30;;;;;;5032579;28;20566;-77
2022/09/30 13:04:36;;;;;;;0.60;0.60;;;19.80;52.10;;;;;;5033144;28;20444;-78
2022/09/30 13:07:17;;;;;;;0.60;0.50;;;19.60;52.30;;;;;;5033700;28;20871;-78
2022/09/30 13:09:58;;;;;;;0.70;0.60;;;19.40;52.20;;;;;;5034224;28;20428;-78
2022/09/30 13:12:28;;;;;;;0.60;0.60;;;19.40;53.00;;;;;;5036650;28;20970;-77
2022/09/30 13:15:31;;;;;;;0.90;0.60;;;19.30;52.40;;;;;;5036990;28;20444;-78
2022/09/30 13:18:25;;;;;;;0.70;0.60;;;19.30;52.70;;;;;;5036756;28;21016;-77
2022/09/30 13:20:55;;;;;;;0.60;0.50;;;19.10;52.60;;;;;;5036586;28;20471;-77
2022/09/30 13:23:38;;;;;;;0.60;0.60;;;19.00;52.80;;;;;;5036940;28;20458;-77
2022/09/30 13:26:22;;;;;;;0.60;0.57;;;18.90;52.80;;;;;;5037039;28;20447;-78
2022/09/30 13:28:50;;;;;;;0.70;0.53;;;18.90;53.10;;;;;;5035815;28;20435;-77
2022/09/30 13:31:18;;;;;;;0.70;0.60;;;18.80;51.90;;;;;;5036693;28;20467;-77
2022/09/30 13:34:03;;;;;;;0.70;0.70;;;18.90;52.30;;;;;;5037220;28;20502;-77
2022/09/30 13:36:31;;;;;;;0.60;0.60;;;19.00;53.70;;;;;;5036847;28;20446;-76
2022/09/30 13:39:18;;;;;;;0.90;0.50;;;19.10;53.20;;;;;;5036446;28;20845;-78
2022/09/30 13:41:57;;;;;;;0.60;0.60;;;19.10;53.20;;;;;;5037137;28;20471;-77
2022/09/30 13:44:32;;;;;;;0.80;0.60;;;19.20;52.60;;;;;;5037763;28;20873;-78
2022/09/30 13:47:02;;;;;;;0.83;0.50;;;19.20;52.70;;;;;;5037083;28;20535;-78
2022/09/30 13:49:40;;;;;;;0.63;0.63;;;19.20;52.70;;;;;;5037317;28;20435;-77
2022/09/30 13:52:08;;;;;;;0.60;0.60;;;19.20;53.00;;;;;;5036710;28;20475;-78
2022/09/30 13:54:39;;;;;;;0.70;0.60;;;19.40;52.00;;;;;;5036937;28;20479;-79
2022/09/30 13:57:09;;;;;;;0.60;0.60;;;19.90;52.10;;;;;;5037399;28;20462;-79
2022/09/30 13:59:46;;;;;;;0.73;0.70;;;21.20;50.20;;;;;;5037469;28;20439;-78
2022/09/30 14:02:48;;;;;;;0.63;0.60;;;22.70;47.80;;;;;;5036097;28;20475;-77
2022/09/30 14:05:42;;;;;;;0.60;0.60;;;23.40;45.50;;;;;;5025016;28;20447;-78
2022/09/30 14:08:33;;;;;;;0.70;0.60;;;25.30;42.90;;;;;;5023547;28;20436;-77
2022/09/30 14:11:14;;;;;;;0.77;0.70;;;28.00;39.70;;;;;;5036147;28;20539;-76
2022/09/30 14:13:55;;;;;;;0.60;0.50;;;30.00;37.10;;;;;;5035891;28;20800;-77
2022/09/30 14:16:45;;;;;;;1.47;0.50;;;31.40;34.40;;;;;;5036030;28;20432;-76
2022/09/30 14:19:32;;;;;;;0.80;0.60;;;30.90;34.10;;;;;;5035730;28;20474;-77
2022/09/30 14:22:04;;;;;;;0.70;0.70;;;30.00;33.80;;;;;;5035942;28;20559;-77
2022/09/30 14:24:34;;;;;;;0.80;0.60;;;28.10;36.40;;;;;;5036117;28;20439;-77
2022/09/30 14:27:16;;;;;;;0.70;0.60;;;27.20;38.20;;;;;;5035966;28;20489;-77
2022/09/30 14:29:51;;;;;;;0.80;0.80;;;26.20;40.00;;;;;;5035862;28;20800;-77
2022/09/30 14:32:21;;;;;;;0.60;0.60;;;25.10;41.50;;;;;;5036501;28;20527;-77
2022/09/30 14:34:49;;;;;;;0.80;0.70;;;24.20;43.40;;;;;;5036062;28;20451;-77
2022/09/30 14:37:27;;;;;;;0.60;0.60;;;23.50;44.50;;;;;;5035794;28;20483;-77
2022/09/30 14:39:54;;;;;;;0.60;0.50;;;22.80;45.60;;;;;;5035790;28;20443;-77
2022/09/30 14:42:28;;;;;;;0.60;0.60;;;22.30;46.80;;;;;;5035506;28;20472;-77
2022/09/30 14:45:01;;;;;;;0.60;0.60;;;22.20;47.00;;;;;;5035657;28;20431;-77
2022/09/30 14:47:27;;;;;;;0.60;0.60;;;23.70;45.40;;;;;;5035594;28;20494;-77
2022/09/30 14:49:54;;;;;;;0.67;0.60;;;25.80;41.80;;;;;;5035523;28;20448;-77
2022/09/30 14:52:44;;;;;;;0.60;0.60;;;27.40;38.90;;;;;;5035953;28;20478;-77
2022/09/30 14:55:22;;;;;;;0.60;0.60;;;27.80;38.00;;;;;;5035080;28;20436;-77
2022/09/30 14:57:50;;;;;;;0.60;0.60;;;27.50;38.30;;;;;;5035794;28;20886;-77
2022/09/30 15:00:23;;;;;;;0.60;0.60;;;28.30;36.80;;;;;;5035385;28;20506;-77
2022/09/30 15:02:50;;;;;;;0.60;0.60;;;29.80;35.70;;;;;;5035653;28;20911;-77
2022/09/30 15:05:18;;;;;;;1.27;0.60;;;31.20;34.30;;;;;;5034922;28;20966;-78
2022/09/30 15:07:46;;;;;;;0.70;0.60;;;32.30;32.90;;;;;;5036413;28;20456;-78
2022/09/30 15:10:22;;;;;;;0.70;0.60;;;33.20;31.30;;;;;;5036725;28;20450;-78
2022/09/30 15:12:50;;;;;;;0.60;0.50;;;33.30;30.80;;;;;;5044946;28;20431;-80
2022/09/30 15:15:27;;;;;;;0.80;0.60;;;32.10;31.80;;;;;;5043418;28;20447;-80
2022/09/30 15:17:55;;;;;;;0.80;0.60;;;30.50;33.40;;;;;;5036014;28;20463;-78
2022/09/30 15:20:30;;;;;;;0.70;0.70;;;28.90;33.90;;;;;;5036712;28;20501;-78
2022/09/30 15:23:02;;;;;;;0.70;0.60;;;27.30;36.10;;;;;;5036110;28;20444;-75
2022/09/30 15:25:30;;;;;;;0.60;0.50;;;26.00;39.20;;;;;;5035077;28;20443;-76
2022/09/30 15:27:56;;;;;;;0.60;0.53;;;25.00;40.20;;;;;;5034724;28;20519;-75
2022/09/30 15:30:27;;;;;;;0.80;0.60;;;24.30;41.20;;;;;;5034588;28;20443;-78
2022/09/30 15:33:00;;;;;;;0.90;0.60;;;23.70;42.20;;;;;;5035093;28;21010;-77
2022/09/30 15:35:27;;;;;;;0.60;0.60;;;23.10;42.90;;;;;;5036870;28;20451;-80
2022/09/30 15:38:05;;;;;;;0.70;0.70;;;22.50;44.00;;;;;;5041670;28;20489;-81
2022/09/30 15:40:49;;;;;;;0.60;0.50;;;21.60;44.60;;;;;;5038994;28;20432;-77
2022/09/30 15:43:31;;;;;;;0.60;0.60;;;20.80;45.80;;;;;;5037020;28;20425;-78
2022/09/30 15:46:26;;;;;;;0.60;0.57;;;20.40;46.80;;;;;;5041587;28;20463;-80
2022/09/30 15:48:54;;;;;;;0.90;0.60;;;20.20;47.50;;;;;;5036725;28;20478;-81
2022/09/30 15:51:40;;;;;;;0.60;0.60;;;20.00;48.90;;;;;;5039264;28;20471;-81
2022/09/30 15:54:29;;;;;;;0.70;0.60;;;19.70;50.70;;;;;;5038646;28;20837;-81
2022/09/30 15:56:57;;;;;;;0.70;0.60;;;19.50;50.20;;;;;;5036544;28;20523;-83
2022/09/30 15:59:59;;;;;;;0.70;0.60;;;19.40;50.30;;;;;;5034931;28;20898;-79
2022/09/30 16:02:27;;;;;;;0.70;0.60;;;19.20;51.30;;;;;;5034803;28;20506;-77
2022/09/30 16:04:54;;;;;;;0.60;0.60;;;19.10;52.80;;;;;;5033942;28;20450;-76
2022/09/30 16:07:24;;;;;;;0.60;0.60;;;19.00;53.70;;;;;;5036110;28;20456;-82
2022/09/30 16:09:50;;;;;;;2.60;0.67;;;18.80;55.00;;;;;;5038180;28;20444;-79
2022/09/30 16:12:21;;;;;;;0.80;0.80;;;18.70;56.10;;;;;;5037061;28;20475;-79
2022/09/30 16:14:51;;;;;;;0.73;0.73;;;18.60;57.00;;;;;;5035792;28;20432;-78
2022/09/30 16:17:22;;;;;;;1.20;1.20;;;18.50;58.00;;;;;;5036747;28;20460;-77
2022/09/30 16:19:54;;;;;;;1.00;1.00;;;18.30;58.90;;;;;;5035499;28;20837;-78
2022/09/30 16:22:36;;;;;;;0.80;0.80;;;18.20;59.50;;;;;;5039594;28;20467;-75
2022/09/30 16:25:11;;;;;;;0.90;0.80;;;18.00;60.10;;;;;;5041527;28;20778;-81